Leicester, New York
Current Conditions -  °F | °C
As of 3:54 PM on Friday 24 Oct 2014 (Local Time) from KDSV Reporting Station
Clear Clear  
Wind Chill: 59°   Ceiling: Unl
Heat Index: 59°   Visibility: 10mi
Dew Point: 32°   Wind: 13mph
Humidity: 36%   Direction: 310°NW
Pressure: 29.94"   Gusts: NA
Location:  42.77°N, 77.9°W
Report Text: KDSV 241954Z AUTO 31011KT 10SM CLR 15/00 A2994 RMK AO2 SLP146 T01500000
Loading
Personal Weather Stations






























Interactive Weather Map
Tropical Storm Tracking
New forecast layout! Learn more

10-Day Weather Forecast

Advertisements
Track Severe Weather on mobile